Time;durP1;ratioP1;P1;durP2;ratioP2;P2;SDS_P1;SDS_P2;PMS_P1;PMS_P2;Temp;Humidity;BMP_temperature;BMP_pressure;BME280_temperature;BME280_humidity;BME280_pressure;Samples;Min_cycle;Max_cycle;Signal;HPM_P1;HPM_P2
2022/06/24 00:02:07;;;;;;;1999.90;999.90;;;18.20;99.90;;;;;;5034144;28;20048;-73
2022/06/24 00:04:33;;;;;;;1999.90;999.90;;;18.20;99.90;;;;;;5016275;28;20033;-84
2022/06/24 00:06:59;;;;;;;1999.90;999.90;;;18.30;99.90;;;;;;5033022;28;20099;-72
2022/06/24 00:09:30;;;;;;;1999.90;999.90;;;18.20;99.90;;;;;;5033748;28;20112;-73
2022/06/24 00:12:07;;;;;;;1999.90;999.90;;;18.20;99.90;;;;;;5033623;28;20025;-73
2022/06/24 00:14:35;;;;;;;1999.90;999.90;;;18.10;99.90;;;;;;5026457;28;20449;-72
2022/06/24 00:17:03;;;;;;;1999.90;999.90;;;18.10;99.90;;;;;;5033828;28;20018;-84
2022/06/24 00:19:31;;;;;;;1999.90;999.90;;;18.10;99.90;;;;;;5034943;28;20057;-73
2022/06/24 00:22:09;;;;;;;1999.90;999.90;;;18.10;99.90;;;;;;5033302;28;20112;-72
2022/06/24 00:24:36;;;;;;;1999.90;999.90;;;18.00;99.90;;;;;;5032370;28;20025;-72
2022/06/24 00:27:04;;;;;;;1999.90;999.90;;;18.10;99.90;;;;;;5015466;28;20374;-72
2022/06/24 00:29:31;;;;;;;1999.90;999.90;;;18.10;99.90;;;;;;5013772;28;20501;-72
2022/06/24 00:32:08;;;;;;;1999.90;999.90;;;18.20;99.90;;;;;;5013283;28;20029;-85
2022/06/24 00:34:36;;;;;;;1999.90;999.90;;;18.30;99.90;;;;;;5013912;28;20034;-73
2022/06/24 00:37:28;;;;;;;1999.90;999.90;;;18.30;99.90;;;;;;5013500;28;20409;-72
2022/06/24 00:40:03;;;;;;;1999.90;999.90;;;18.40;99.90;;;;;;5028864;28;20059;-73
2022/06/24 00:42:29;;;;;;;1999.90;999.90;;;18.40;99.90;;;;;;5027417;28;20021;-73
2022/06/24 00:45:17;;;;;;;1999.90;999.90;;;18.50;99.90;;;;;;5015643;28;20045;-85
2022/06/24 00:47:45;;;;;;;1999.90;999.90;;;18.50;99.90;;;;;;5014849;28;20022;-84
2022/06/24 00:50:24;;;;;;;1999.90;999.90;;;18.50;99.90;;;;;;5038529;28;20025;-84
2022/06/24 00:52:56;;;;;;;1999.90;999.90;;;18.50;99.90;;;;;;5033264;28;20485;-72
2022/06/24 00:55:28;;;;;;;1999.90;999.90;;;18.50;99.90;;;;;;5015278;28;20029;-73
2022/06/24 00:57:55;;;;;;;1999.90;999.90;;;18.50;99.90;;;;;;5033706;28;20029;-72
2022/06/24 01:00:27;;;;;;;1999.90;999.90;;;18.50;99.90;;;;;;5037160;28;20037;-85
2022/06/24 01:03:00;;;;;;;1999.90;999.90;;;18.50;99.90;;;;;;5033050;28;20060;-73
2022/06/24 01:05:27;;;;;;;1999.90;999.90;;;18.50;99.90;;;;;;5015098;28;20053;-85
2022/06/24 01:07:53;;;;;;;1999.90;999.90;;;18.50;99.90;;;;;;5033254;28;20052;-84
2022/06/24 01:10:18;;;;;;;1999.90;999.90;;;18.50;99.90;;;;;;5033185;28;20030;-72
2022/06/24 01:12:45;;;;;;;1999.90;999.90;;;18.40;99.90;;;;;;5023526;28;20032;-84
2022/06/24 01:15:11;;;;;;;1999.90;999.90;;;18.40;99.90;;;;;;5012712;28;20370;-84
2022/06/24 01:17:37;;;;;;;1999.90;999.90;;;18.40;99.90;;;;;;5013192;28;20030;-72
2022/06/24 01:20:10;;;;;;;1999.90;999.90;;;18.50;99.90;;;;;;5013058;28;20105;-72
2022/06/24 01:22:37;;;;;;;1999.90;999.90;;;18.40;99.90;;;;;;5012164;28;20025;-72
2022/06/24 01:25:03;;;;;;;1999.90;999.90;;;18.40;99.90;;;;;;5013372;28;20077;-83
2022/06/24 01:27:29;;;;;;;1999.90;999.90;;;18.30;99.90;;;;;;5013176;28;20022;-73
2022/06/24 01:29:55;;;;;;;1999.90;999.90;;;18.30;99.90;;;;;;5013138;28;20081;-73
2022/06/24 01:32:20;;;;;;;1999.90;999.90;;;18.30;99.90;;;;;;4994218;28;20040;-84
2022/06/24 01:34:46;;;;;;;1999.90;999.90;;;18.20;99.90;;;;;;5012962;28;20053;-73
2022/06/24 01:37:12;;;;;;;1999.90;999.90;;;18.20;99.90;;;;;;5024388;28;20047;-72
2022/06/24 01:39:38;;;;;;;1999.90;999.90;;;18.20;99.90;;;;;;5029958;28;20481;-72
2022/06/24 01:42:05;;;;;;;1999.90;999.90;;;18.20;99.90;;;;;;5027249;28;20104;-72
2022/06/24 01:44:30;;;;;;;1999.90;999.90;;;18.20;99.90;;;;;;5032527;28;20030;-77
2022/06/24 01:46:56;;;;;;;1999.90;999.90;;;18.30;99.90;;;;;;5041928;28;20044;-73
2022/06/24 01:49:22;;;;;;;1999.90;999.90;;;18.30;99.90;;;;;;5030776;28;20029;-72
2022/06/24 01:51:53;;;;;;;1999.90;999.90;;;18.30;99.90;;;;;;5012792;28;20022;-72
2022/06/24 01:54:19;;;;;;;1999.90;999.90;;;18.30;99.90;;;;;;5022133;28;20515;-72
2022/06/24 01:56:44;;;;;;;1999.90;999.90;;;18.30;99.90;;;;;;5026695;28;20037;-84
2022/06/24 01:59:10;;;;;;;1999.90;999.90;;;18.30;99.90;;;;;;5018329;28;20025;-85
2022/06/24 02:01:36;;;;;;;1999.90;999.90;;;18.30;99.90;;;;;;5032597;28;20032;-72
2022/06/24 02:04:02;;;;;;;1999.90;999.90;;;18.30;99.90;;;;;;5032312;28;20033;-72
2022/06/24 02:06:27;;;;;;;1999.90;999.90;;;18.30;99.90;;;;;;5032315;28;20405;-73
2022/06/24 02:08:55;;;;;;;1999.90;999.90;;;18.30;99.90;;;;;;5032544;28;20050;-72
2022/06/24 02:14:09;;;;;;;1999.90;999.90;;;18.40;99.90;;;;;;5030788;28;20075;-73
2022/06/24 02:16:35;;;;;;;1999.90;999.90;;;18.40;99.90;;;;;;5031771;28;20025;-73
2022/06/24 02:19:01;;;;;;;1999.90;999.90;;;18.40;99.90;;;;;;5032172;28;20104;-86
2022/06/24 02:21:27;;;;;;;1999.90;999.90;;;18.30;99.90;;;;;;5031975;28;20013;-85
2022/06/24 02:23:53;;;;;;;1999.90;999.90;;;18.30;99.90;;;;;;5015017;28;20030;-72
2022/06/24 02:26:20;;;;;;;1999.90;999.90;;;18.30;99.90;;;;;;5032253;28;20033;-72
2022/06/24 02:28:46;;;;;;;1999.90;999.90;;;18.30;99.90;;;;;;5032099;28;20084;-73
2022/06/24 02:31:11;;;;;;;1999.90;999.90;;;18.30;99.90;;;;;;5035734;28;20492;-73
2022/06/24 02:33:37;;;;;;;1999.90;999.90;;;18.30;99.90;;;;;;5019095;28;20029;-73
2022/06/24 02:36:04;;;;;;;1999.90;999.90;;;18.30;99.90;;;;;;5035633;28;20036;-73
2022/06/24 02:38:30;;;;;;;1999.90;999.90;;;18.40;99.90;;;;;;5027987;28;20030;-73
2022/06/24 02:40:57;;;;;;;1999.90;999.90;;;18.40;99.90;;;;;;5018469;28;20040;-73
2022/06/24 02:43:25;;;;;;;1999.90;999.90;;;18.40;99.90;;;;;;5034848;28;20061;-83
2022/06/24 02:45:53;;;;;;;1999.90;999.90;;;18.40;99.90;;;;;;5032865;28;20025;-85
2022/06/24 02:48:20;;;;;;;1999.90;999.90;;;18.40;99.90;;;;;;5015848;28;20037;-72
2022/06/24 02:50:51;;;;;;;1999.90;999.90;;;18.40;99.90;;;;;;5015654;28;20032;-73
2022/06/24 02:53:18;;;;;;;1999.90;999.90;;;18.30;99.90;;;;;;5022398;28;20026;-79
2022/06/24 02:55:45;;;;;;;1999.90;999.90;;;18.30;99.90;;;;;;5035133;28;20028;-73
2022/06/24 02:58:11;;;;;;;1999.90;999.90;;;18.30;99.90;;;;;;5026478;28;20481;-73
2022/06/24 03:00:39;;;;;;;1999.90;999.90;;;18.30;99.90;;;;;;5033982;28;20029;-72
2022/06/24 03:03:06;;;;;;;1999.90;999.90;;;18.30;99.90;;;;;;5035336;28;20396;-73
2022/06/24 03:05:32;;;;;;;1999.90;999.90;;;18.30;99.90;;;;;;5033892;28;20045;-81
2022/06/24 03:07:58;;;;;;;1999.90;999.90;;;18.30;99.90;;;;;;5035197;28;20052;-72
2022/06/24 03:10:23;;;;;;;1999.90;999.90;;;18.20;99.90;;;;;;5033516;28;20026;-73
2022/06/24 03:12:49;;;;;;;1999.90;999.90;;;18.20;99.90;;;;;;5025311;28;20026;-73
2022/06/24 03:15:15;;;;;;;1999.90;999.90;;;18.20;99.90;;;;;;5017259;28;20022;-73
2022/06/24 03:17:41;;;;;;;1999.90;999.90;;;18.20;99.90;;;;;;5035175;28;20104;-73
2022/06/24 03:20:08;;;;;;;1999.90;999.90;;;18.10;99.90;;;;;;5048377;28;20033;-80
2022/06/24 03:22:35;;;;;;;1999.90;999.90;;;18.10;99.90;;;;;;5044172;28;20029;-84
2022/06/24 03:25:01;;;;;;;1999.90;999.90;;;18.10;99.90;;;;;;5035393;28;20148;-73
2022/06/24 03:27:26;;;;;;;1999.90;999.90;;;18.10;99.90;;;;;;5035109;28;20540;-73
2022/06/24 03:29:52;;;;;;;1999.90;999.90;;;18.20;99.90;;;;;;5017151;28;20439;-73
2022/06/24 03:32:18;;;;;;;1999.90;999.90;;;18.20;99.90;;;;;;5034791;28;20118;-85
2022/06/24 03:34:43;;;;;;;1999.90;999.90;;;18.30;99.90;;;;;;5034718;28;20040;-73
2022/06/24 03:37:09;;;;;;;1999.90;999.90;;;18.30;99.90;;;;;;5034509;28;20035;-73
2022/06/24 03:39:35;;;;;;;1999.90;999.90;;;18.40;99.90;;;;;;5017120;28;20058;-73
2022/06/24 03:42:01;;;;;;;1999.90;999.90;;;18.40;99.90;;;;;;5030080;28;20563;-73
2022/06/24 03:44:28;;;;;;;1999.90;999.90;;;18.30;99.90;;;;;;5033366;28;20101;-73
2022/06/24 03:46:53;;;;;;;1999.90;999.90;;;18.30;99.90;;;;;;5022978;28;20041;-72
2022/06/24 03:49:19;;;;;;;1999.90;999.90;;;18.30;99.90;;;;;;5018948;28;20021;-73
2022/06/24 03:51:45;;;;;;;1999.90;999.90;;;18.30;99.90;;;;;;5033994;28;20480;-72
2022/06/24 03:54:11;;;;;;;1999.90;999.90;;;18.20;99.90;;;;;;5034308;28;20021;-73
2022/06/24 03:56:37;;;;;;;1999.90;999.90;;;18.20;99.90;;;;;;5034521;28;20070;-73
2022/06/24 03:59:02;;;;;;;1999.90;999.90;;;18.20;99.90;;;;;;5034214;28;20511;-73
2022/06/24 04:01:28;;;;;;;1999.90;999.90;;;18.20;99.90;;;;;;5033907;28;20068;-73
2022/06/24 04:03:54;;;;;;;1999.90;999.90;;;18.20;99.90;;;;;;5033768;28;20022;-73
2022/06/24 04:06:20;;;;;;;1999.90;999.90;;;18.30;99.90;;;;;;5038289;28;20041;-79
2022/06/24 04:08:46;;;;;;;1999.90;999.90;;;18.40;99.90;;;;;;5033959;28;20455;-73
2022/06/24 04:11:13;;;;;;;1999.90;999.90;;;18.30;99.90;;;;;;5034004;28;20038;-83
2022/06/24 04:13:38;;;;;;;1999.90;999.90;;;18.20;99.90;;;;;;5016722;28;20042;-85
2022/06/24 04:16:04;;;;;;;1999.90;999.90;;;18.10;99.90;;;;;;5014075;28;20057;-73
2022/06/24 04:18:30;;;;;;;1999.90;999.90;;;18.10;99.90;;;;;;5013850;28;20068;-73
2022/06/24 04:20:56;;;;;;;1999.90;999.90;;;18.00;99.90;;;;;;5013875;28;20018;-73
2022/06/24 04:23:21;;;;;;;1999.90;999.90;;;18.00;99.90;;;;;;5013753;28;20034;-85
2022/06/24 04:25:48;;;;;;;1999.90;999.90;;;18.00;99.90;;;;;;5014247;28;20093;-73
2022/06/24 04:28:13;;;;;;;1999.90;999.90;;;18.00;99.90;;;;;;5016044;28;20026;-73
2022/06/24 04:30:42;;;;;;;1999.90;999.90;;;18.00;99.90;;;;;;5014029;28;20389;-85
2022/06/24 04:33:08;;;;;;;1999.90;999.90;;;18.00;99.90;;;;;;5030957;28;20029;-73
2022/06/24 04:35:33;;;;;;;1999.90;999.90;;;18.00;99.90;;;;;;5034172;28;20483;-72
2022/06/24 04:37:59;;;;;;;1999.90;999.90;;;18.10;99.90;;;;;;5029255;28;20026;-77
2022/06/24 04:40:26;;;;;;;1999.90;999.90;;;18.10;99.90;;;;;;5013992;28;20034;-80
2022/06/24 04:42:52;;;;;;;1999.90;999.90;;;18.10;99.90;;;;;;5031397;28;20033;-84
2022/06/24 04:45:17;;;;;;;1999.90;999.90;;;18.10;99.90;;;;;;5033386;28;20484;-73
2022/06/24 04:47:43;;;;;;;1999.90;999.90;;;18.10;99.90;;;;;;5015219;28;20028;-73
2022/06/24 04:50:09;;;;;;;1999.90;999.90;;;18.10;99.90;;;;;;5013635;28;20149;-84
2022/06/24 04:52:36;;;;;;;1999.90;999.90;;;18.10;99.90;;;;;;5012677;28;20057;-85
2022/06/24 04:55:03;;;;;;;1999.90;999.90;;;18.10;99.90;;;;;;5023465;28;20027;-73
2022/06/24 04:57:29;;;;;;;1999.90;999.90;;;18.10;99.90;;;;;;5033654;28;20022;-73
2022/06/24 04:59:54;;;;;;;1999.90;999.90;;;18.10;99.90;;;;;;5015507;28;20029;-73
2022/06/24 05:02:20;;;;;;;1999.90;999.90;;;18.10;99.90;;;;;;5032783;28;20366;-74
2022/06/24 05:04:47;;;;;;;1999.90;999.90;;;18.00;99.90;;;;;;5015134;28;20087;-77
2022/06/24 05:07:13;;;;;;;1999.90;999.90;;;17.60;99.90;;;;;;5031903;28;20033;-76
2022/06/24 05:09:38;;;;;;;1999.90;999.90;;;17.40;99.90;;;;;;5033543;28;20021;-74
2022/06/24 05:12:04;;;;;;;1999.90;999.90;;;17.20;99.90;;;;;;5028707;28;20033;-78
2022/06/24 05:14:31;;;;;;;1999.90;999.90;;;17.10;99.90;;;;;;5013479;28;20072;-79
2022/06/24 05:16:57;;;;;;;1999.90;999.90;;;17.00;99.90;;;;;;5012711;28;20077;-77
2022/06/24 05:19:23;;;;;;;1999.90;999.90;;;17.00;99.90;;;;;;5014710;28;20037;-73
2022/06/24 05:21:50;;;;;;;1999.90;999.90;;;17.00;99.90;;;;;;5012491;28;20482;-78
2022/06/24 05:24:16;;;;;;;1999.90;999.90;;;17.00;99.90;;;;;;5013388;28;20022;-73
2022/06/24 05:26:42;;;;;;;1999.90;999.90;;;17.00;99.90;;;;;;5013051;28;20045;-74
2022/06/24 05:29:08;;;;;;;1999.90;999.90;;;17.00;99.90;;;;;;5013483;28;20053;-79
2022/06/24 05:31:34;;;;;;;1999.90;999.90;;;17.00;99.90;;;;;;5021927;28;20030;-78
2022/06/24 05:34:00;;;;;;;1999.90;999.90;;;17.00;99.90;;;;;;5032088;28;20025;-73
2022/06/24 05:36:26;;;;;;;1999.90;999.90;;;17.00;99.90;;;;;;5026320;28;20033;-73
2022/06/24 05:38:51;;;;;;;1999.90;999.90;;;17.10;99.90;;;;;;5024644;28;20034;-73
2022/06/24 05:41:18;;;;;;;1999.90;999.90;;;17.00;99.90;;;;;;5026314;28;20393;-82
2022/06/24 05:43:44;;;;;;;1999.90;999.90;;;17.00;99.90;;;;;;5014189;28;20030;-84
2022/06/24 05:46:10;;;;;;;1999.90;999.90;;;17.00;99.90;;;;;;5018192;28;20014;-72
2022/06/24 05:48:36;;;;;;;1999.90;999.90;;;17.10;99.90;;;;;;5032267;28;20024;-72
2022/06/24 05:51:15;;;;;;;1999.90;999.90;;;17.20;99.90;;;;;;5014250;28;20075;-72
2022/06/24 05:56:25;;;;;;;1999.90;999.90;;;17.50;99.90;;;;;;5032345;28;20032;-82
2022/06/24 05:58:51;;;;;;;1999.90;999.90;;;17.60;99.90;;;;;;5032202;28;20100;-72
2022/06/24 06:01:17;;;;;;;1999.90;999.90;;;17.60;99.90;;;;;;5032165;28;20033;-73
2022/06/24 06:03:43;;;;;;;1999.90;999.90;;;17.60;99.90;;;;;;5031988;28;20033;-73
2022/06/24 06:06:09;;;;;;;1999.90;999.90;;;17.50;99.90;;;;;;5035563;28;20412;-84
2022/06/24 06:08:36;;;;;;;1999.90;999.90;;;17.60;99.90;;;;;;5035981;28;20030;-84
2022/06/24 06:11:01;;;;;;;1999.90;999.90;;;17.60;99.90;;;;;;5026504;28;20025;-83
2022/06/24 06:13:27;;;;;;;1999.90;999.90;;;17.80;99.90;;;;;;5016073;28;20029;-83
2022/06/24 06:15:53;;;;;;;1999.90;999.90;;;17.90;99.90;;;;;;5035906;28;20017;-83
2022/06/24 06:18:18;;;;;;;1999.90;999.90;;;18.00;99.90;;;;;;5036003;28;20029;-73
2022/06/24 06:20:44;;;;;;;1999.90;999.90;;;18.20;99.90;;;;;;5035885;28;20504;-73
2022/06/24 06:23:11;;;;;;;1999.90;999.90;;;18.10;99.90;;;;;;5035491;28;20041;-83
2022/06/24 06:25:37;;;;;;;1999.90;999.90;;;18.20;99.90;;;;;;5035804;28;20045;-73
2022/06/24 06:28:03;;;;;;;1999.90;999.90;;;18.40;99.90;;;;;;5049563;28;20037;-84
2022/06/24 06:30:32;;;;;;;1999.90;999.90;;;18.40;99.90;;;;;;5035794;28;20488;-84
2022/06/24 06:32:57;;;;;;;1999.90;999.90;;;18.50;99.90;;;;;;5030881;28;20476;-73
2022/06/24 06:35:23;;;;;;;1999.90;999.90;;;18.50;99.90;;;;;;5032827;28;20044;-86
2022/06/24 06:37:48;;;;;;;1999.90;999.90;;;18.50;99.90;;;;;;5033833;28;20017;-73
2022/06/24 06:40:14;;;;;;;1999.90;999.90;;;18.40;99.90;;;;;;5025420;28;20098;-73
2022/06/24 06:42:41;;;;;;;1999.90;999.90;;;18.40;99.90;;;;;;5028506;28;20033;-74
2022/06/24 06:45:07;;;;;;;1999.90;999.90;;;18.50;99.90;;;;;;5032078;28;20116;-73
2022/06/24 06:47:33;;;;;;;1999.90;999.90;;;18.50;99.90;;;;;;5011552;28;20469;-73
2022/06/24 06:49:59;;;;;;;1999.90;999.90;;;18.40;99.90;;;;;;5034327;28;20029;-84
2022/06/24 06:52:24;;;;;;;1999.90;999.90;;;18.40;99.90;;;;;;5027835;28;20033;-73
2022/06/24 06:54:50;;;;;;;1999.90;999.90;;;18.50;99.90;;;;;;5024724;28;20025;-73
2022/06/24 06:57:16;;;;;;;1999.90;999.90;;;18.70;99.90;;;;;;5022326;28;20041;-74
2022/06/24 06:59:41;;;;;;;1999.90;999.90;;;18.90;99.90;;;;;;5023124;28;20029;-82
2022/06/24 07:02:07;;;;;;;1999.90;999.90;;;19.10;99.90;;;;;;5012202;28;20045;-75
2022/06/24 07:04:32;;;;;;;1999.90;999.90;;;19.40;99.90;;;;;;5022728;28;20057;-74
2022/06/24 07:06:58;;;;;;;1999.90;999.90;;;19.70;99.90;;;;;;5021608;28;20056;-82
2022/06/24 07:09:24;;;;;;;1999.90;999.90;;;19.60;99.90;;;;;;5008349;28;20125;-75
2022/06/24 07:11:49;;;;;;;1999.90;999.90;;;19.40;99.90;;;;;;5026707;28;20160;-74
2022/06/24 07:14:15;;;;;;;1999.90;999.90;;;19.50;99.90;;;;;;5023103;28;20108;-82
2022/06/24 07:16:41;;;;;;;1999.90;999.90;;;19.90;99.90;;;;;;5025400;28;20033;-81
2022/06/24 07:19:06;;;;;;;1999.90;999.90;;;20.20;99.90;;;;;;5009404;28;20500;-75
2022/06/24 07:21:32;;;;;;;1999.90;999.90;;;19.90;99.90;;;;;;5028488;28;20129;-82
2022/06/24 07:23:57;;;;;;;1999.90;999.90;;;19.80;99.90;;;;;;5025762;28;20044;-74
2022/06/24 07:26:23;;;;;;;1999.90;999.90;;;19.60;99.90;;;;;;5027041;28;20036;-83
2022/06/24 07:28:49;;;;;;;1999.90;999.90;;;19.70;99.90;;;;;;5024550;28;20030;-82
2022/06/24 07:31:19;;;;;;;1999.90;999.90;;;19.70;99.90;;;;;;5023603;28;20032;-74
2022/06/24 07:33:45;;;;;;;1999.90;999.90;;;20.00;99.90;;;;;;5016853;28;20088;-83
2022/06/24 07:36:11;;;;;;;1999.90;999.90;;;22.00;99.90;;;;;;5028062;28;20029;-75
2022/06/24 07:38:37;;;;;;;1999.90;999.90;;;23.20;99.90;;;;;;5029620;28;20037;-83
2022/06/24 07:41:03;;;;;;;1999.90;999.90;;;23.00;99.90;;;;;;5024441;28;20040;-79
2022/06/24 07:43:29;;;;;;;1999.90;999.90;;;21.60;99.90;;;;;;5023467;28;20116;-74
2022/06/24 07:45:55;;;;;;;1999.90;999.90;;;21.00;99.90;;;;;;5025638;28;20110;-74
2022/06/24 07:48:21;;;;;;;1999.90;999.90;;;21.00;99.90;;;;;;5027803;28;20469;-74
2022/06/24 07:50:47;;;;;;;1999.90;999.90;;;20.70;99.90;;;;;;5002535;28;20030;-74
2022/06/24 07:53:12;;;;;;;1999.90;999.90;;;20.30;99.90;;;;;;5028766;28;20476;-82
2022/06/24 07:58:22;;;;;;;1999.90;999.90;;;20.00;99.90;;;;;;5027683;28;20084;-72
2022/06/24 08:00:48;;;;;;;1999.90;999.90;;;19.90;99.90;;;;;;5024492;28;20069;-74
2022/06/24 08:03:15;;;;;;;1999.90;999.90;;;19.70;99.90;;;;;;5030083;28;20124;-74
2022/06/24 08:05:41;;;;;;;1999.90;999.90;;;19.60;99.90;;;;;;5027016;28;20060;-84
2022/06/24 08:08:07;;;;;;;1999.90;999.90;;;19.50;99.90;;;;;;5025113;28;20040;-75
2022/06/24 08:10:32;;;;;;;1999.90;999.90;;;19.30;99.90;;;;;;5021936;28;20034;-74
2022/06/24 08:12:58;;;;;;;1999.90;999.90;;;19.40;99.90;;;;;;5028797;28;20034;-83
2022/06/24 08:15:24;;;;;;;1999.90;999.90;;;19.30;99.90;;;;;;5029835;28;20030;-74
2022/06/24 08:17:49;;;;;;;1999.90;999.90;;;19.70;99.90;;;;;;5025552;28;20034;-85
2022/06/24 08:20:16;;;;;;;1999.90;999.90;;;20.20;99.90;;;;;;5025403;28;20068;-83
2022/06/24 08:22:41;;;;;;;1999.90;999.90;;;19.90;99.90;;;;;;5012013;28;20455;-74
2022/06/24 08:25:08;;;;;;;1999.90;999.90;;;19.60;99.90;;;;;;5027466;28;20026;-74
2022/06/24 08:27:34;;;;;;;1999.90;999.90;;;19.50;99.90;;;;;;5030179;28;20026;-74
2022/06/24 08:29:59;;;;;;;1999.90;999.90;;;19.40;99.90;;;;;;5026628;28;20025;-74
2022/06/24 08:32:25;;;;;;;1999.90;999.90;;;19.40;99.90;;;;;;5022577;28;20032;-80
2022/06/24 08:34:51;;;;;;;1999.90;999.90;;;19.60;99.90;;;;;;5025998;28;20029;-85
2022/06/24 08:37:16;;;;;;;1999.90;999.90;;;20.00;99.90;;;;;;5023492;28;20451;-84
2022/06/24 08:39:42;;;;;;;1999.90;999.90;;;20.10;99.90;;;;;;5027473;28;20026;-74
2022/06/24 08:42:11;;;;;;;1999.90;999.90;;;20.00;99.90;;;;;;5026899;28;20041;-74
2022/06/24 08:44:37;;;;;;;1999.90;999.90;;;20.00;99.90;;;;;;5018924;28;20022;-84
2022/06/24 08:47:03;;;;;;;1999.90;999.90;;;20.10;99.90;;;;;;5023830;28;20440;-82
2022/06/24 08:49:32;;;;;;;1999.90;999.90;;;21.20;99.90;;;;;;5016272;28;20393;-74
2022/06/24 08:51:59;;;;;;;1999.90;999.90;;;22.40;99.90;;;;;;5014522;28;20052;-74
2022/06/24 08:54:29;;;;;;;1999.90;999.90;;;22.10;99.90;;;;;;5025510;28;20564;-74
2022/06/24 08:56:55;;;;;;;1999.90;999.90;;;21.40;99.90;;;;;;5028658;28;20060;-77
2022/06/24 08:59:21;;;;;;;1999.90;999.90;;;20.50;99.90;;;;;;5022654;28;20049;-83
2022/06/24 09:01:47;;;;;;;1999.90;999.90;;;21.10;99.90;;;;;;5020886;28;20354;-75
2022/06/24 09:04:13;;;;;;;1999.90;999.90;;;21.90;99.90;;;;;;5020525;28;21069;-74
2022/06/24 09:06:41;;;;;;;1999.90;999.90;;;21.80;99.90;;;;;;5025866;28;20141;-74
2022/06/24 09:09:07;;;;;;;1999.90;999.90;;;22.00;99.90;;;;;;5023451;28;20022;-81
2022/06/24 09:11:40;;;;;;;1999.90;999.90;;;21.70;99.90;;;;;;5011523;28;20385;-79
2022/06/24 09:14:07;;;;;;;1999.90;999.90;;;20.80;99.90;;;;;;5024493;28;20044;-74
2022/06/24 09:16:37;;;;;;;1999.90;999.90;;;20.10;99.90;;;;;;5028061;28;20099;-74
2022/06/24 09:19:05;;;;;;;1999.90;999.90;;;19.70;99.90;;;;;;5028220;28;20053;-74
2022/06/24 09:21:43;;;;;;;1999.90;999.90;;;19.90;99.90;;;;;;5028918;28;20030;-74
2022/06/24 09:24:10;;;;;;;1999.90;999.90;;;19.80;99.90;;;;;;5030118;28;20091;-84
2022/06/24 09:26:37;;;;;;;1999.90;999.90;;;19.80;99.90;;;;;;5027708;28;20021;-82
2022/06/24 09:29:11;;;;;;;1999.90;999.90;;;20.20;99.90;;;;;;5020382;28;20025;-74
2022/06/24 09:31:38;;;;;;;1999.90;999.90;;;20.20;99.90;;;;;;5020740;28;20045;-74
2022/06/24 09:34:08;;;;;;;1999.90;999.90;;;20.10;99.90;;;;;;5013976;28;20392;-74
2022/06/24 09:36:34;;;;;;;1999.90;999.90;;;19.60;99.90;;;;;;5014246;28;20022;-84
2022/06/24 09:39:03;;;;;;;1999.90;999.90;;;19.30;99.90;;;;;;5020321;28;20057;-72
2022/06/24 09:41:29;;;;;;;1999.90;999.90;;;19.10;99.90;;;;;;5028731;28;20060;-74
2022/06/24 09:43:59;;;;;;;1999.90;999.90;;;18.90;99.90;;;;;;5030373;28;20057;-74
2022/06/24 09:46:25;;;;;;;1999.90;999.90;;;19.10;99.90;;;;;;5023198;28;20033;-74
2022/06/24 09:48:53;;;;;;;1999.90;999.90;;;19.40;99.90;;;;;;5019626;28;20025;-84
2022/06/24 09:51:20;;;;;;;1999.90;999.90;;;19.90;99.90;;;;;;5030799;28;20071;-82
2022/06/24 09:53:46;;;;;;;1999.90;999.90;;;20.60;99.90;;;;;;5032222;28;20504;-74
2022/06/24 09:56:13;;;;;;;1999.90;999.90;;;20.60;99.90;;;;;;5026599;28;20026;-75
2022/06/24 09:58:41;;;;;;;1999.90;999.90;;;22.50;99.90;;;;;;5023248;28;20458;-75
2022/06/24 10:01:07;;;;;;;1999.90;999.90;;;25.00;99.90;;;;;;5027403;28;20083;-79
2022/06/24 10:03:35;;;;;;;1999.90;999.90;;;25.30;99.90;;;;;;5028538;28;20030;-78
2022/06/24 10:06:09;;;;;;;1999.90;999.90;;;25.30;99.90;;;;;;5029757;28;20041;-74
2022/06/24 10:08:36;;;;;;;1999.90;999.90;;;25.80;99.90;;;;;;5009378;28;20415;-75
2022/06/24 10:11:07;;;;;;;1999.90;999.90;;;25.80;99.90;;;;;;5032441;28;20025;-74
2022/06/24 10:13:34;;;;;;;1999.90;999.90;;;23.30;99.90;;;;;;5026929;28;20113;-74
2022/06/24 10:16:06;;;;;;;1999.90;999.90;;;21.60;99.90;;;;;;5027973;28;20025;-75
2022/06/24 10:18:39;;;;;;;1999.90;999.90;;;20.40;99.90;;;;;;5021955;28;20064;-74
2022/06/24 10:21:06;;;;;;;;;;;19.70;99.90;;;;;;5013624;28;20516;-74
2022/06/24 10:23:38;;;;;;;1999.90;999.90;;;19.20;99.90;;;;;;5030872;28;19924;-74
2022/06/24 10:26:16;;;;;;;1999.90;999.90;;;18.00;99.90;;;;;;5026055;28;20627;-74
2022/06/24 10:29:00;;;;;;;1999.90;999.90;;;17.60;99.90;;;;;;5030177;28;20043;-73
2022/06/24 10:31:44;;;;;;;1999.90;999.90;;;17.30;99.90;;;;;;5029775;28;20137;-73
2022/06/24 10:34:22;;;;;;;1999.90;999.90;;;17.30;99.90;;;;;;5025517;28;20026;-73
2022/06/24 10:36:52;;;;;;;1999.90;999.90;;;17.70;99.90;;;;;;5026732;28;20080;-73
2022/06/24 10:39:20;;;;;;;1999.90;999.90;;;18.20;99.90;;;;;;5029619;28;20021;-73
2022/06/24 10:41:47;;;;;;;1999.90;999.90;;;18.50;99.90;;;;;;5026734;28;20029;-74
2022/06/24 10:44:34;;;;;;;1999.90;999.90;;;18.50;99.90;;;;;;5020167;28;20520;-81
2022/06/24 10:47:05;;;;;;;1999.90;999.90;;;18.80;99.90;;;;;;5026466;28;20053;-74
2022/06/24 10:49:54;;;;;;;1999.90;999.90;;;21.00;99.90;;;;;;5015762;28;20133;-84
2022/06/24 10:52:48;;;;;;;1999.90;999.90;;;21.40;99.90;;;;;;5030232;28;20034;-74
2022/06/24 10:57:43;;;;;;;1999.90;999.90;;;20.00;99.90;;;;;;5030478;28;20556;-82
2022/06/24 11:00:42;;;;;;;1999.90;999.90;;;19.80;99.90;;;;;;5033099;28;20447;-73
2022/06/24 11:03:07;;;;;;;1999.90;999.90;;;19.80;99.90;;;;;;5025968;28;20032;-84
2022/06/24 11:05:39;;;;;;;1999.90;999.90;;;19.90;99.90;;;;;;5033779;28;20045;-74
2022/06/24 11:08:23;;;;;;;1999.90;999.90;;;20.10;99.90;;;;;;5024360;28;20026;-83
2022/06/24 11:10:50;;;;;;;1999.90;999.90;;;20.10;99.90;;;;;;5027303;28;20061;-74
2022/06/24 11:13:17;;;;;;;1999.90;999.90;;;20.20;99.90;;;;;;5007725;28;20421;-74
2022/06/24 11:15:58;;;;;;;1999.90;999.90;;;20.70;99.90;;;;;;5025314;28;20568;-74
2022/06/24 11:18:32;;;;;;;1999.90;999.90;;;21.50;99.90;;;;;;5010842;28;20120;-74
2022/06/24 11:21:03;;;;;;;1999.90;999.90;;;21.60;99.90;;;;;;5022750;28;20040;-74
2022/06/24 11:23:34;;;;;;;1999.90;999.90;;;21.40;99.90;;;;;;5024960;28;20041;-75
2022/06/24 11:26:08;;;;;;;1999.90;999.90;;;21.60;99.90;;;;;;5025380;28;20049;-75
2022/06/24 11:28:37;;;;;;;1999.90;999.90;;;20.90;99.90;;;;;;5020791;28;20061;-75
2022/06/24 11:31:19;;;;;;;1999.90;999.90;;;21.40;99.90;;;;;;5025596;28;20029;-75
2022/06/24 11:33:47;;;;;;;1999.90;999.90;;;21.50;99.90;;;;;;5021353;28;20030;-85
2022/06/24 11:36:14;;;;;;;1999.90;999.90;;;21.60;99.90;;;;;;5019506;28;20038;-75
2022/06/24 11:39:01;;;;;;;1999.90;999.90;;;22.60;99.90;;;;;;5012896;28;20033;-74
2022/06/24 11:41:33;;;;;;;1999.90;999.90;;;22.60;99.90;;;;;;5022412;28;20026;-75
2022/06/24 11:43:58;;;;;;;1999.90;999.90;;;23.50;99.90;;;;;;5029803;28;20176;-82
2022/06/24 11:46:24;;;;;;;1999.90;999.90;;;23.40;99.90;;;;;;5032506;28;20611;-77
2022/06/24 11:49:13;;;;;;;1999.90;999.90;;;22.80;99.90;;;;;;5021448;28;20037;-85
2022/06/24 11:51:40;;;;;;;1999.90;999.90;;;23.00;99.90;;;;;;5028246;28;20512;-75
2022/06/24 11:54:08;;;;;;;1999.90;999.90;;;23.50;99.90;;;;;;5017640;28;20079;-75
2022/06/24 11:56:38;;;;;;;1999.90;999.90;;;24.00;99.90;;;;;;5021707;28;20022;-80
2022/06/24 11:59:05;;;;;;;1999.90;999.90;;;24.10;99.70;;;;;;5029028;28;20084;-73
2022/06/24 12:01:33;;;;;;;1999.90;999.90;;;24.20;99.10;;;;;;5023922;28;20021;-83
2022/06/24 12:04:01;;;;;;;1999.90;999.90;;;24.20;99.00;;;;;;5025270;28;20030;-75
2022/06/24 12:06:28;;;;;;;1999.90;999.90;;;24.00;98.70;;;;;;5022186;28;20497;-75
2022/06/24 12:08:55;;;;;;;1999.90;999.90;;;23.90;98.90;;;;;;5014309;28;20435;-74
2022/06/24 12:11:21;;;;;;;1999.90;999.90;;;23.90;99.10;;;;;;5024177;28;20034;-85
2022/06/24 12:14:02;;;;;;;1999.90;999.90;;;24.20;98.60;;;;;;5006021;28;20034;-84